createdAt,value
2019-03-06T00:00:27.485Z,5.50
2019-03-06T00:01:27.558Z,5.44
2019-03-06T00:02:27.475Z,5.47
2019-03-06T00:03:27.434Z,5.54
2019-03-06T00:04:27.512Z,5.56
2019-03-06T00:05:27.326Z,5.53
2019-03-06T00:06:27.534Z,5.51
2019-03-06T00:07:27.376Z,5.50
2019-03-06T00:08:27.306Z,5.53
2019-03-06T00:09:27.322Z,5.57
2019-03-06T00:10:27.274Z,5.53
2019-03-06T00:11:27.270Z,5.43
2019-03-06T00:12:27.254Z,5.43
2019-03-06T00:13:27.320Z,5.46
2019-03-06T00:14:27.236Z,5.46
2019-03-06T00:15:27.244Z,5.38
2019-03-06T00:16:27.201Z,5.36
2019-03-06T00:17:27.203Z,5.39
2019-03-06T00:18:27.176Z,5.28
2019-03-06T00:19:27.212Z,5.36
2019-03-06T00:20:27.170Z,5.33
2019-03-06T00:21:27.136Z,5.46
2019-03-06T00:22:27.155Z,5.32
2019-03-06T00:23:27.125Z,5.32
2019-03-06T00:24:27.124Z,5.30
2019-03-06T00:25:27.108Z,5.29
2019-03-06T00:26:27.089Z,5.30
2019-03-06T00:27:27.078Z,5.29
2019-03-06T00:28:27.088Z,5.20
2019-03-06T00:29:27.073Z,5.23
2019-03-06T00:30:27.054Z,5.25
2019-03-06T00:31:27.033Z,5.17
2019-03-06T00:32:27.019Z,5.17
2019-03-06T00:33:27.010Z,5.20
2019-03-06T00:34:27.015Z,5.25
2019-03-06T00:35:26.999Z,5.21
2019-03-06T00:36:27.032Z,5.28
2019-03-06T00:37:26.967Z,5.32
2019-03-06T00:38:26.961Z,5.39
2019-03-06T00:39:26.957Z,5.38
2019-03-06T00:40:26.944Z,5.41
2019-03-06T00:41:26.967Z,5.26
2019-03-06T00:42:26.918Z,5.35
2019-03-06T00:43:26.935Z,5.36
2019-03-06T00:44:26.886Z,5.33
2019-03-06T00:45:26.920Z,5.36
2019-03-06T00:46:26.884Z,5.32
2019-03-06T00:47:26.866Z,5.41
2019-03-06T00:48:26.898Z,5.30
2019-03-06T00:49:26.831Z,5.44
2019-03-06T00:50:26.819Z,5.36
2019-03-06T00:51:26.820Z,5.38
2019-03-06T00:52:26.807Z,5.41
2019-03-06T00:53:26.796Z,5.32
2019-03-06T00:54:26.794Z,5.33
2019-03-06T00:55:26.781Z,5.36
2019-03-06T00:56:26.751Z,5.43
2019-03-06T00:57:26.750Z,5.48
2019-03-06T00:58:26.731Z,5.46
2019-03-06T00:59:26.756Z,5.43
2019-03-06T01:00:26.710Z,5.41
2019-03-06T01:01:26.700Z,5.44
2019-03-06T01:02:26.695Z,5.39
2019-03-06T01:03:26.695Z,5.39
2019-03-06T01:04:26.669Z,5.38
2019-03-06T01:05:26.672Z,5.41
2019-03-06T01:06:26.656Z,5.44
2019-03-06T01:07:26.631Z,5.44
2019-03-06T01:08:26.634Z,5.46
2019-03-06T01:09:26.630Z,5.47
2019-03-06T01:10:26.607Z,5.46
2019-03-06T01:11:26.624Z,5.41
2019-03-06T01:12:26.575Z,5.44
2019-03-06T01:13:26.574Z,5.47
2019-03-06T01:14:26.563Z,5.43
2019-03-06T01:15:26.569Z,5.50
2019-03-06T01:16:26.549Z,5.46
2019-03-06T01:17:26.519Z,5.38
2019-03-06T01:18:26.511Z,5.43
2019-03-06T01:19:26.527Z,5.44
2019-03-06T01:20:26.494Z,5.48
2019-03-06T01:21:26.498Z,5.38
2019-03-06T01:22:26.485Z,5.36
2019-03-06T01:23:26.453Z,5.41
2019-03-06T01:24:26.480Z,5.47
2019-03-06T01:25:26.444Z,5.38
2019-03-06T01:26:26.518Z,5.44
2019-03-06T01:27:26.443Z,5.36
2019-03-06T01:28:26.395Z,5.36
2019-03-06T01:29:26.385Z,5.35
2019-03-06T01:30:26.374Z,5.30
2019-03-06T01:31:26.372Z,5.39
2019-03-06T01:32:26.374Z,5.38
2019-03-06T01:33:26.354Z,5.44
2019-03-06T01:34:26.325Z,5.35
2019-03-06T01:35:26.318Z,5.36
2019-03-06T01:36:26.320Z,5.32
2019-03-06T01:37:26.318Z,5.28
2019-03-06T01:38:26.310Z,5.30
2019-03-06T01:39:26.273Z,5.32
2019-03-06T01:40:26.265Z,5.28
2019-03-06T01:41:26.275Z,5.21
2019-03-06T01:42:26.244Z,5.21
2019-03-06T01:43:26.238Z,5.23
2019-03-06T01:44:26.225Z,5.17
2019-03-06T01:45:26.205Z,5.21
2019-03-06T01:46:26.676Z,5.07
2019-03-06T01:47:26.182Z,4.97
2019-03-06T01:48:26.177Z,5.00
2019-03-06T01:49:26.169Z,4.93
2019-03-06T01:50:26.143Z,5.02
2019-03-06T01:51:26.154Z,4.94
2019-03-06T01:52:26.130Z,4.96
2019-03-06T01:53:26.120Z,4.94
2019-03-06T01:54:26.119Z,4.90
2019-03-06T01:55:26.113Z,4.90
2019-03-06T01:56:26.090Z,4.86
2019-03-06T01:57:26.143Z,4.92
2019-03-06T01:58:26.062Z,4.94
2019-03-06T01:59:26.073Z,4.82
2019-03-06T02:00:26.056Z,4.89
2019-03-06T02:01:26.024Z,4.84
2019-03-06T02:02:26.014Z,4.87
2019-03-06T02:03:26.002Z,4.94
2019-03-06T02:04:26.000Z,4.82
2019-03-06T02:05:25.989Z,4.74
2019-03-06T02:06:25.980Z,4.87
2019-03-06T02:07:25.953Z,4.90
2019-03-06T02:08:25.990Z,4.93
2019-03-06T02:09:25.939Z,4.86
2019-03-06T02:10:25.932Z,4.92
2019-03-06T02:11:25.931Z,4.93
2019-03-06T02:12:25.902Z,4.94
2019-03-06T02:13:25.890Z,4.96
2019-03-06T02:14:25.880Z,4.93
2019-03-06T02:15:25.874Z,4.90
2019-03-06T02:16:25.880Z,4.84
2019-03-06T02:17:25.855Z,4.86
2019-03-06T02:18:25.842Z,4.84
2019-03-06T02:19:25.858Z,4.82
2019-03-06T02:20:25.838Z,4.82
2019-03-06T02:21:25.805Z,4.82
2019-03-06T02:22:25.840Z,4.73
2019-03-06T02:23:25.826Z,4.74
2019-03-06T02:24:25.766Z,4.73
2019-03-06T02:25:25.756Z,4.75
2019-03-06T02:26:25.760Z,4.77
2019-03-06T02:27:25.736Z,4.73
2019-03-06T02:28:25.730Z,4.67
2019-03-06T02:29:25.787Z,4.73
2019-03-06T02:30:25.731Z,4.73
2019-03-06T02:31:25.686Z,4.68
2019-03-06T02:32:25.688Z,4.77
2019-03-06T02:33:25.673Z,4.78
2019-03-06T02:34:25.667Z,4.75
2019-03-06T02:35:25.646Z,4.80
2019-03-06T02:36:25.646Z,4.74
2019-03-06T02:37:25.655Z,4.78
2019-03-06T02:38:25.649Z,4.80
2019-03-06T02:39:25.611Z,4.75
2019-03-06T02:40:25.630Z,4.75
2019-03-06T02:41:25.579Z,4.74
2019-03-06T02:42:25.583Z,4.74
2019-03-06T02:43:25.576Z,4.71
2019-03-06T02:44:25.565Z,4.74
2019-03-06T02:45:25.584Z,4.74
2019-03-06T02:46:25.566Z,4.78
2019-03-06T02:47:25.565Z,4.80
2019-03-06T02:48:25.497Z,4.80
2019-03-06T02:49:25.493Z,4.80
2019-03-06T02:50:25.489Z,4.70
2019-03-06T02:51:25.504Z,4.68
2019-03-06T02:52:25.457Z,4.73
2019-03-06T02:53:25.447Z,4.67
2019-03-06T02:54:28.279Z,4.71
2019-03-06T02:55:25.419Z,4.70
2019-03-06T02:56:25.448Z,4.68
2019-03-06T02:57:25.404Z,4.68
2019-03-06T02:58:25.426Z,4.68
2019-03-06T02:59:25.370Z,4.71
2019-03-06T03:00:25.362Z,4.71
2019-03-06T03:01:25.358Z,4.68
2019-03-06T03:02:25.592Z,4.68
2019-03-06T03:03:25.438Z,4.75
2019-03-06T03:04:25.343Z,4.80
2019-03-06T03:05:25.323Z,4.68
2019-03-06T03:06:25.296Z,4.68
2019-03-06T03:07:25.317Z,4.70
2019-03-06T03:08:25.360Z,4.67
2019-03-06T03:09:25.256Z,4.70
2019-03-06T03:10:25.251Z,4.67
2019-03-06T03:11:25.244Z,4.67
2019-03-06T03:12:25.231Z,4.68
2019-03-06T03:13:25.229Z,4.68
2019-03-06T03:14:25.255Z,4.66
2019-03-06T03:15:25.198Z,4.75
2019-03-06T03:16:25.182Z,4.74
2019-03-06T03:17:25.173Z,4.71
2019-03-06T03:18:25.161Z,4.68
2019-03-06T03:19:25.162Z,4.78
2019-03-06T03:20:25.206Z,4.73
2019-03-06T03:21:26.995Z,4.71
2019-03-06T03:22:25.121Z,4.73
2019-03-06T03:23:25.129Z,4.63
2019-03-06T03:24:25.140Z,4.63
2019-03-06T03:25:25.086Z,4.67
2019-03-06T03:26:25.071Z,4.70
2019-03-06T03:27:25.061Z,4.71
2019-03-06T03:28:25.051Z,4.73
2019-03-06T03:29:25.055Z,4.82
2019-03-06T03:30:25.040Z,4.77
2019-03-06T03:31:25.014Z,4.74
2019-03-06T03:32:25.012Z,4.75
2019-03-06T03:33:25.011Z,4.73
2019-03-06T03:34:24.984Z,4.82
2019-03-06T03:35:24.981Z,4.80
2019-03-06T03:36:25.061Z,4.82
2019-03-06T03:37:24.961Z,4.77
2019-03-06T03:38:24.935Z,4.70
2019-03-06T03:39:24.931Z,4.67
2019-03-06T03:41:34.226Z,4.66
2019-03-06T03:42:34.191Z,4.63
2019-03-06T03:43:34.180Z,4.63
2019-03-06T03:44:34.185Z,4.68
2019-03-06T03:45:34.176Z,4.70
2019-03-06T03:46:34.158Z,4.62
2019-03-06T03:47:34.139Z,4.63
2019-03-06T03:48:34.135Z,4.70
2019-03-06T03:49:34.115Z,4.68
2019-03-06T03:50:34.099Z,4.66
2019-03-06T03:51:34.088Z,4.49
2019-03-06T03:52:34.102Z,4.62
2019-03-06T03:53:34.069Z,4.63
2019-03-06T03:54:34.063Z,4.62
2019-03-06T03:55:34.055Z,4.66
2019-03-06T03:56:34.031Z,4.55
2019-03-06T03:57:34.044Z,4.63
2019-03-06T03:58:34.025Z,4.66
2019-03-06T03:59:34.005Z,4.53
2019-03-06T04:00:34.001Z,4.50
2019-03-06T04:01:34.011Z,4.56
2019-03-06T04:02:33.977Z,4.52
2019-03-06T04:03:33.972Z,4.50
2019-03-06T04:04:33.950Z,4.58
2019-03-06T04:05:33.939Z,4.53
2019-03-06T04:06:33.932Z,4.49
2019-03-06T04:07:33.932Z,4.48
2019-03-06T04:08:33.925Z,4.50
2019-03-06T04:09:33.895Z,4.37
2019-03-06T04:10:33.897Z,4.38
2019-03-06T04:11:33.874Z,4.35
2019-03-06T04:12:34.336Z,4.35
2019-03-06T04:13:33.897Z,4.34
2019-03-06T04:14:33.847Z,4.35
2019-03-06T04:15:33.827Z,4.34
2019-03-06T04:16:33.815Z,4.28
2019-03-06T04:17:33.817Z,4.28
2019-03-06T04:18:33.794Z,4.26
2019-03-06T04:19:33.791Z,4.34
2019-03-06T04:20:33.778Z,4.32
2019-03-06T04:21:33.778Z,4.26
2019-03-06T04:22:33.795Z,4.32
2019-03-06T04:23:33.842Z,4.28
2019-03-06T04:24:33.737Z,4.37
2019-03-06T04:25:33.739Z,4.40
2019-03-06T04:26:33.709Z,4.37
2019-03-06T04:27:33.703Z,4.40
2019-03-06T04:28:33.681Z,4.35
2019-03-06T04:29:33.710Z,4.37
2019-03-06T04:30:33.668Z,4.28
2019-03-06T04:31:33.665Z,4.32
2019-03-06T04:32:33.646Z,4.37
2019-03-06T04:33:33.645Z,4.30
2019-03-06T04:34:33.618Z,4.28
2019-03-06T04:35:33.609Z,4.34
2019-03-06T04:36:33.613Z,4.32
2019-03-06T04:37:33.651Z,4.28
2019-03-06T04:38:33.580Z,4.26
2019-03-06T04:39:33.571Z,4.17
2019-03-06T04:40:33.562Z,4.08
2019-03-06T04:41:33.547Z,4.16
2019-03-06T04:42:33.538Z,4.12
2019-03-06T04:43:33.517Z,4.28
2019-03-06T04:44:33.513Z,4.19
2019-03-06T04:45:33.496Z,4.28
2019-03-06T04:46:33.490Z,4.32
2019-03-06T04:47:33.486Z,4.16
2019-03-06T04:48:33.480Z,4.32
2019-03-06T04:49:33.452Z,4.22
2019-03-06T04:50:33.448Z,4.26
2019-03-06T04:51:33.432Z,4.26
2019-03-06T04:52:33.420Z,4.26
2019-03-06T04:53:33.430Z,4.30
2019-03-06T04:54:33.441Z,4.24
2019-03-06T04:55:33.385Z,4.24
2019-03-06T04:56:33.380Z,4.31
2019-03-06T04:57:33.367Z,4.23
2019-03-06T04:58:33.358Z,4.28
2019-03-06T04:59:33.353Z,4.19
2019-03-06T05:00:33.349Z,4.10
2019-03-06T05:01:33.321Z,4.12
2019-03-06T05:02:33.319Z,4.13
2019-03-06T05:03:33.293Z,4.10
2019-03-06T05:04:33.295Z,4.12
2019-03-06T05:05:33.283Z,4.16
2019-03-06T05:06:33.275Z,4.08
2019-03-06T05:07:33.255Z,4.10
2019-03-06T05:08:33.249Z,4.13
2019-03-06T05:09:33.235Z,4.10
2019-03-06T05:10:33.231Z,4.10
2019-03-06T05:11:33.279Z,4.06
2019-03-06T05:12:33.195Z,4.13
2019-03-06T05:13:33.235Z,4.14
2019-03-06T05:14:33.183Z,4.14
2019-03-06T05:15:33.178Z,4.12
2019-03-06T05:16:33.171Z,4.12
2019-03-06T05:17:33.151Z,4.02
2019-03-06T05:18:33.142Z,4.02
2019-03-06T05:19:33.134Z,3.95
2019-03-06T05:20:33.125Z,3.96
2019-03-06T05:21:33.115Z,3.87
2019-03-06T05:22:33.097Z,3.91
2019-03-06T05:23:33.141Z,3.84
2019-03-06T05:24:33.087Z,3.77
2019-03-06T05:25:33.062Z,3.76
2019-03-06T05:26:33.052Z,3.73
2019-03-06T05:27:33.045Z,3.74
2019-03-06T05:28:33.057Z,3.74
2019-03-06T05:29:33.018Z,3.70
2019-03-06T05:30:33.006Z,3.69
2019-03-06T05:31:32.995Z,3.76
2019-03-06T05:32:32.994Z,3.74
2019-03-06T05:33:32.988Z,3.74
2019-03-06T05:34:32.975Z,3.70
2019-03-06T05:35:32.955Z,3.63
2019-03-06T05:36:32.947Z,3.63
2019-03-06T05:37:32.940Z,3.70
2019-03-06T05:38:32.958Z,3.58
2019-03-06T05:39:32.938Z,3.50
2019-03-06T05:40:32.937Z,3.65
2019-03-06T05:41:32.972Z,3.58
2019-03-06T05:42:32.871Z,3.51
2019-03-06T05:43:32.879Z,3.47
2019-03-06T05:44:32.856Z,3.51
2019-03-06T05:45:32.852Z,3.50
2019-03-06T05:46:32.842Z,3.50
2019-03-06T05:47:32.906Z,3.55
2019-03-06T05:48:32.817Z,3.59
2019-03-06T05:49:32.810Z,3.65
2019-03-06T05:50:32.794Z,3.42
2019-03-06T05:51:32.785Z,3.47
2019-03-06T05:52:32.777Z,3.53
2019-03-06T05:53:32.766Z,3.50
2019-03-06T05:54:32.748Z,3.50
2019-03-06T05:55:32.750Z,3.48
2019-03-06T05:56:32.738Z,3.34
2019-03-06T05:57:32.735Z,3.44
2019-03-06T05:58:32.703Z,3.28
2019-03-06T05:59:32.694Z,3.36
2019-03-06T06:00:32.702Z,3.40
2019-03-06T06:01:32.672Z,3.31
2019-03-06T06:02:32.673Z,3.31
2019-03-06T06:03:32.664Z,3.36
2019-03-06T06:04:32.649Z,3.41
2019-03-06T06:05:32.627Z,3.31
2019-03-06T06:06:32.629Z,3.41
2019-03-06T06:07:32.609Z,3.37
2019-03-06T06:08:32.615Z,3.47
2019-03-06T06:09:32.586Z,3.45
2019-03-06T06:10:32.578Z,3.44
2019-03-06T06:11:32.564Z,3.42
2019-03-06T06:12:32.578Z,3.34
2019-03-06T06:13:32.549Z,3.53
2019-03-06T06:14:32.543Z,3.51
2019-03-06T06:15:32.525Z,3.50
2019-03-06T06:16:32.517Z,3.50
2019-03-06T06:17:32.508Z,3.55
2019-03-06T06:18:32.494Z,3.45
2019-03-06T06:19:32.485Z,3.53
2019-03-06T06:20:32.472Z,3.47
2019-03-06T06:21:32.512Z,3.58
2019-03-06T06:22:32.447Z,3.50
2019-03-06T06:23:32.434Z,3.45
2019-03-06T06:24:32.426Z,3.48
2019-03-06T06:25:32.416Z,3.55
2019-03-06T06:26:32.440Z,3.62
2019-03-06T06:27:32.387Z,3.55
2019-03-06T06:28:32.379Z,3.55
2019-03-06T06:29:32.376Z,3.53
2019-03-06T06:30:32.472Z,3.60
2019-03-06T06:31:32.368Z,3.58
2019-03-06T06:32:33.034Z,3.68
2019-03-06T06:33:32.328Z,3.65
2019-03-06T06:34:32.325Z,3.58
2019-03-06T06:35:32.301Z,3.70
2019-03-06T06:36:32.296Z,3.65
2019-03-06T06:37:32.315Z,3.62
2019-03-06T06:38:32.277Z,3.59
2019-03-06T06:39:32.265Z,3.63
2019-03-06T06:40:32.265Z,3.59
2019-03-06T06:41:32.246Z,3.55
2019-03-06T06:42:32.235Z,3.59
2019-03-06T06:43:32.234Z,3.53
2019-03-06T06:44:32.213Z,3.65
2019-03-06T06:45:32.213Z,3.50
2019-03-06T06:46:32.191Z,3.62
2019-03-06T06:47:32.191Z,3.58
2019-03-06T06:48:32.185Z,3.63
2019-03-06T06:49:32.155Z,3.51
2019-03-06T06:50:32.198Z,3.53
2019-03-06T06:51:32.150Z,3.56
2019-03-06T06:52:32.125Z,3.73
2019-03-06T06:53:32.116Z,3.63
2019-03-06T06:54:32.119Z,3.59
2019-03-06T06:55:32.124Z,3.63
2019-03-06T06:56:32.100Z,3.59
2019-03-06T06:57:32.079Z,3.60
2019-03-06T06:58:32.068Z,3.62
2019-03-06T06:59:32.063Z,3.66
2019-03-06T07:00:32.049Z,3.68
2019-03-06T07:01:32.030Z,3.73
2019-03-06T07:02:32.115Z,3.77
2019-03-06T07:03:32.013Z,3.78
2019-03-06T07:04:32.003Z,3.73
2019-03-06T07:05:31.988Z,3.76
2019-03-06T07:06:31.989Z,3.74
2019-03-06T07:07:31.972Z,3.69
2019-03-06T07:08:31.956Z,3.77
2019-03-06T07:09:31.957Z,3.78
2019-03-06T07:10:31.935Z,3.73
2019-03-06T07:11:31.926Z,3.86
2019-03-06T07:12:31.950Z,3.91
2019-03-06T07:13:31.916Z,3.91
2019-03-06T07:14:31.889Z,3.86
2019-03-06T07:15:31.886Z,3.87
2019-03-06T07:16:31.872Z,3.83
2019-03-06T07:17:31.862Z,3.88
2019-03-06T07:18:31.862Z,4.05
2019-03-06T07:19:31.849Z,3.98
2019-03-06T07:20:31.827Z,4.05
2019-03-06T07:21:31.824Z,4.12
2019-03-06T07:22:31.816Z,4.12
2019-03-06T07:23:31.801Z,4.16
2019-03-06T07:24:31.787Z,4.06
2019-03-06T07:25:31.783Z,4.10
2019-03-06T07:26:31.757Z,4.22
2019-03-06T07:27:31.759Z,4.14
2019-03-06T07:28:31.775Z,4.06
2019-03-06T07:29:31.735Z,4.22
2019-03-06T07:30:31.723Z,4.16
2019-03-06T07:31:31.760Z,4.17
2019-03-06T07:32:31.726Z,4.20
2019-03-06T07:33:31.684Z,4.26
2019-03-06T07:34:31.708Z,4.28
2019-03-06T07:35:31.710Z,4.31
2019-03-06T07:36:31.659Z,4.28
2019-03-06T07:37:31.643Z,4.34
2019-03-06T07:38:31.658Z,4.37
2019-03-06T07:39:32.237Z,4.37
2019-03-06T07:40:31.624Z,4.52
2019-03-06T07:41:31.618Z,4.50
2019-03-06T07:42:31.592Z,4.52
2019-03-06T07:43:31.654Z,4.52
2019-03-06T07:44:31.565Z,4.58
2019-03-06T07:45:31.569Z,4.66
2019-03-06T07:46:31.572Z,4.67
2019-03-06T07:47:31.532Z,4.63
2019-03-06T07:48:31.525Z,4.67
2019-03-06T07:49:31.606Z,4.75
2019-03-06T07:50:31.507Z,4.82
2019-03-06T07:51:32.001Z,4.74
2019-03-06T07:52:31.507Z,4.75
2019-03-06T07:53:31.523Z,4.87
2019-03-06T07:54:31.457Z,4.86
2019-03-06T07:55:31.457Z,4.80
2019-03-06T07:56:31.496Z,4.96
2019-03-06T07:57:31.443Z,4.90
2019-03-06T07:58:31.412Z,4.97
2019-03-06T07:59:31.493Z,5.00
2019-03-06T08:00:31.387Z,4.96
2019-03-06T08:01:31.409Z,5.04
2019-03-06T08:02:31.492Z,5.08
2019-03-06T08:03:31.376Z,5.08
2019-03-06T08:04:31.348Z,5.14
2019-03-06T08:05:31.414Z,5.15
2019-03-06T08:06:31.438Z,5.25
2019-03-06T08:07:31.311Z,5.20
2019-03-06T08:08:31.308Z,5.35
2019-03-06T08:09:31.327Z,5.35
2019-03-06T08:10:31.276Z,5.39
2019-03-06T08:11:31.286Z,5.36
2019-03-06T08:12:31.258Z,5.33
2019-03-06T08:13:31.260Z,5.39
2019-03-06T08:14:31.245Z,5.36
2019-03-06T08:15:31.227Z,5.36
2019-03-06T08:16:31.211Z,5.47
2019-03-06T08:17:31.203Z,5.43
2019-03-06T08:18:31.196Z,5.44
2019-03-06T08:19:31.187Z,5.51
2019-03-06T08:20:31.219Z,5.50
2019-03-06T08:21:31.155Z,5.46
2019-03-06T08:22:31.149Z,5.50
2019-03-06T08:23:31.145Z,5.53
2019-03-06T08:24:31.267Z,5.66
2019-03-06T08:25:31.126Z,5.65
2019-03-06T08:26:31.102Z,5.79
2019-03-06T08:27:31.082Z,5.84
2019-03-06T08:28:31.083Z,5.83
2019-03-06T08:29:31.065Z,5.89
2019-03-06T08:30:31.057Z,5.87
2019-03-06T08:31:31.060Z,5.99
2019-03-06T08:32:31.036Z,5.97
2019-03-06T08:33:31.022Z,5.97
2019-03-06T08:34:31.008Z,5.97
2019-03-06T08:35:31.002Z,6.02
2019-03-06T08:36:31.043Z,6.12
2019-03-06T08:37:31.013Z,6.17
2019-03-06T08:38:31.013Z,6.16
2019-03-06T08:39:30.954Z,6.31
2019-03-06T08:40:31.014Z,6.33
2019-03-06T08:41:30.930Z,6.27
2019-03-06T08:42:32.561Z,6.31
2019-03-06T08:43:30.955Z,6.48
2019-03-06T08:44:30.908Z,6.57
2019-03-06T08:45:30.900Z,6.63
2019-03-06T08:46:30.878Z,6.67
2019-03-06T08:47:30.878Z,6.74
2019-03-06T08:48:30.869Z,6.75
2019-03-06T08:49:30.891Z,6.84
2019-03-06T08:50:30.887Z,6.87
2019-03-06T08:51:30.822Z,7.05
2019-03-06T08:52:30.814Z,7.15
2019-03-06T08:53:30.894Z,7.21
2019-03-06T08:54:30.807Z,7.32
2019-03-06T08:55:30.821Z,7.43
2019-03-06T08:56:30.862Z,7.40
2019-03-06T08:57:30.769Z,7.43
2019-03-06T08:58:30.754Z,7.45
2019-03-06T08:59:30.751Z,7.47
2019-03-06T09:00:30.834Z,7.56
2019-03-06T09:01:30.712Z,7.54
2019-03-06T09:02:30.700Z,7.63
2019-03-06T09:03:30.725Z,7.63
2019-03-06T09:04:30.695Z,7.53
2019-03-06T09:05:31.105Z,7.75
2019-03-06T09:06:30.673Z,7.67
2019-03-06T09:07:32.141Z,7.70
2019-03-06T09:08:30.643Z,7.79
2019-03-06T09:09:30.627Z,7.80
2019-03-06T09:10:30.660Z,7.73
2019-03-06T09:11:30.627Z,7.69
2019-03-06T09:12:30.625Z,7.72
2019-03-06T09:13:30.590Z,7.73
2019-03-06T09:14:30.649Z,7.77
2019-03-06T09:15:30.558Z,7.85
2019-03-06T09:16:30.599Z,7.83
2019-03-06T09:17:30.540Z,7.79
2019-03-06T09:18:30.543Z,7.85
2019-03-06T09:19:30.522Z,7.94
2019-03-06T09:20:36.115Z,8.01
2019-03-06T09:21:31.501Z,8.06
2019-03-06T09:22:30.545Z,8.09
2019-03-06T09:23:30.479Z,8.16
2019-03-06T09:24:30.465Z,8.15
2019-03-06T09:25:30.452Z,8.19
2019-03-06T09:26:30.494Z,8.18
2019-03-06T09:27:30.492Z,8.13
2019-03-06T09:28:30.416Z,8.31
2019-03-06T09:29:30.417Z,8.28
2019-03-06T09:30:30.401Z,8.42
2019-03-06T09:31:30.390Z,8.27
2019-03-06T09:32:30.375Z,8.36
2019-03-06T09:33:30.448Z,8.38
2019-03-06T09:34:30.371Z,8.38
2019-03-06T09:35:30.353Z,8.27
2019-03-06T09:36:30.353Z,8.33
2019-03-06T09:37:30.327Z,8.37
2019-03-06T09:38:30.333Z,8.37
2019-03-06T09:39:30.346Z,8.42
2019-03-06T09:40:30.395Z,8.41
2019-03-06T09:41:30.434Z,8.36
2019-03-06T09:42:30.304Z,8.41
2019-03-06T09:43:30.260Z,8.60
2019-03-06T09:44:30.292Z,8.51
2019-03-06T09:45:30.228Z,8.61
2019-03-06T09:46:30.223Z,8.60
2019-03-06T09:47:30.225Z,8.61
2019-03-06T09:48:30.211Z,8.69
2019-03-06T09:49:30.187Z,8.79
2019-03-06T09:50:30.233Z,8.71
2019-03-06T09:51:30.169Z,8.67
2019-03-06T09:52:30.171Z,8.82
2019-03-06T09:53:30.158Z,8.79
2019-03-06T09:54:30.131Z,8.85
2019-03-06T09:55:30.126Z,8.94
2019-03-06T09:56:30.122Z,8.91
2019-03-06T09:57:30.131Z,8.95
2019-03-06T09:58:30.086Z,8.95
2019-03-06T09:59:30.148Z,8.92
2019-03-06T10:00:30.106Z,8.92
2019-03-06T10:01:30.259Z,8.89
2019-03-06T10:02:30.054Z,8.89
2019-03-06T10:03:30.243Z,9.02
2019-03-06T10:04:30.049Z,9.13
2019-03-06T10:05:30.027Z,9.18
2019-03-06T10:06:30.047Z,9.11
2019-03-06T10:07:30.010Z,9.16
2019-03-06T10:08:30.010Z,9.14
2019-03-06T10:09:29.972Z,9.19
2019-03-06T10:10:29.976Z,9.16
2019-03-06T10:11:29.957Z,9.26
2019-03-06T10:12:30.004Z,9.22
2019-03-06T10:13:30.030Z,9.29
2019-03-06T10:14:29.912Z,9.31
2019-03-06T10:15:29.905Z,9.36
2019-03-06T10:16:29.906Z,9.40
2019-03-06T10:17:30.317Z,9.44
2019-03-06T10:18:29.870Z,9.47
2019-03-06T10:19:29.867Z,9.46
2019-03-06T10:20:29.857Z,9.43
2019-03-06T10:21:29.846Z,9.47
2019-03-06T10:22:29.840Z,9.50
2019-03-06T10:23:29.809Z,9.47
2019-03-06T10:24:29.810Z,9.50
2019-03-06T10:25:31.324Z,9.48
2019-03-06T10:26:29.787Z,9.58
2019-03-06T10:27:29.865Z,9.58
2019-03-06T10:28:29.855Z,9.61
2019-03-06T10:29:29.840Z,9.68
2019-03-06T10:30:29.754Z,9.72
2019-03-06T10:31:29.725Z,9.76
2019-03-06T10:32:29.723Z,9.83
2019-03-06T10:33:29.723Z,9.89
2019-03-06T10:34:29.702Z,9.87
2019-03-06T10:35:29.686Z,9.92
2019-03-06T10:36:29.695Z,9.87
2019-03-06T10:37:29.920Z,9.94
2019-03-06T10:38:29.647Z,9.98
2019-03-06T10:39:29.652Z,9.86
2019-03-06T10:40:29.633Z,9.87
2019-03-06T10:41:29.634Z,10.02
2019-03-06T10:42:29.609Z,9.94
2019-03-06T10:43:29.599Z,10.09
2019-03-06T10:44:30.089Z,10.17
2019-03-06T10:45:30.191Z,10.17
2019-03-06T10:46:29.585Z,10.10
2019-03-06T10:47:29.574Z,10.12
2019-03-06T10:48:29.546Z,10.07
2019-03-06T10:49:29.536Z,10.26
2019-03-06T10:50:31.283Z,10.22
2019-03-06T10:51:31.042Z,10.30
2019-03-06T10:52:29.496Z,10.33
2019-03-06T10:53:29.476Z,10.37
2019-03-06T10:54:29.463Z,10.31
2019-03-06T10:55:29.468Z,10.41
2019-03-06T10:56:29.467Z,10.30
2019-03-06T10:57:29.436Z,10.34
2019-03-06T10:58:29.459Z,10.34
2019-03-06T10:59:29.434Z,10.38
2019-03-06T11:00:29.398Z,10.38
2019-03-06T11:01:29.405Z,10.37
2019-03-06T11:02:29.374Z,10.54
2019-03-06T11:03:29.378Z,10.49
2019-03-06T11:04:29.379Z,10.48
2019-03-06T11:05:29.344Z,10.51
2019-03-06T11:06:29.339Z,10.56
2019-03-06T11:07:29.337Z,10.60
2019-03-06T11:08:29.318Z,10.71
2019-03-06T11:09:29.313Z,10.72
2019-03-06T11:10:29.290Z,10.71
2019-03-06T11:11:29.349Z,10.67
2019-03-06T11:12:29.475Z,10.74
2019-03-06T11:13:29.275Z,10.74
2019-03-06T11:14:29.268Z,10.82
2019-03-06T11:15:29.261Z,10.78
2019-03-06T11:16:30.132Z,10.74
2019-03-06T11:17:29.213Z,10.74
2019-03-06T11:18:29.208Z,10.76
2019-03-06T11:19:29.262Z,10.68
2019-03-06T11:20:29.191Z,10.79
2019-03-06T11:21:29.197Z,10.81
2019-03-06T11:22:29.157Z,10.72
2019-03-06T11:23:29.239Z,10.86
2019-03-06T11:24:29.331Z,10.79
2019-03-06T11:25:29.122Z,10.90
2019-03-06T11:26:29.128Z,10.90
2019-03-06T11:27:29.131Z,10.81
2019-03-06T11:28:29.086Z,10.81
2019-03-06T11:29:29.093Z,10.79
2019-03-06T11:30:29.068Z,10.84
2019-03-06T11:31:29.171Z,10.90
2019-03-06T11:32:29.067Z,10.94
2019-03-06T11:33:29.036Z,10.96
2019-03-06T11:34:29.031Z,10.92
2019-03-06T11:35:29.024Z,11.04
2019-03-06T11:36:29.010Z,11.05
2019-03-06T11:37:29.001Z,11.05
2019-03-06T11:38:29.018Z,11.04
2019-03-06T11:39:28.968Z,10.99
2019-03-06T11:40:28.960Z,10.92
2019-03-06T11:41:28.948Z,10.90
2019-03-06T11:42:28.937Z,10.99
2019-03-06T11:43:28.930Z,11.02
2019-03-06T11:44:28.930Z,11.00
2019-03-06T11:45:28.972Z,11.04
2019-03-06T11:46:28.897Z,11.00
2019-03-06T11:47:28.902Z,11.10
2019-03-06T11:48:28.871Z,11.10
2019-03-06T11:49:28.869Z,11.10
2019-03-06T11:50:28.856Z,11.02
2019-03-06T11:51:28.842Z,11.04
2019-03-06T11:52:28.841Z,11.12
2019-03-06T11:53:28.842Z,11.14
2019-03-06T11:54:28.813Z,11.23
2019-03-06T11:55:28.807Z,11.19
2019-03-06T11:56:28.775Z,11.25
2019-03-06T11:57:28.827Z,11.30
2019-03-06T11:58:28.759Z,11.25
2019-03-06T11:59:28.747Z,11.32
2019-03-06T12:00:28.739Z,11.30
2019-03-06T12:01:28.744Z,11.41
2019-03-06T12:02:28.751Z,11.36
2019-03-06T12:03:28.714Z,11.35
2019-03-06T12:04:28.721Z,11.44
2019-03-06T12:05:28.777Z,11.41
2019-03-06T12:06:28.678Z,11.36
2019-03-06T12:07:28.676Z,11.45
2019-03-06T12:08:28.651Z,11.45
2019-03-06T12:09:28.654Z,11.44
2019-03-06T12:10:28.625Z,11.37
2019-03-06T12:11:28.615Z,11.41
2019-03-06T12:12:28.605Z,11.44
2019-03-06T12:13:28.604Z,11.50
2019-03-06T12:14:28.582Z,11.48
2019-03-06T12:15:28.585Z,11.52
2019-03-06T12:16:28.562Z,11.55
2019-03-06T12:17:28.593Z,11.54
2019-03-06T12:18:28.536Z,11.52
2019-03-06T12:19:28.533Z,11.45
2019-03-06T12:20:28.515Z,11.47
2019-03-06T12:21:28.510Z,11.41
2019-03-06T12:22:28.504Z,11.37
2019-03-06T12:23:28.489Z,11.45
2019-03-06T12:24:28.478Z,11.47
2019-03-06T12:25:28.508Z,11.43
2019-03-06T12:26:28.474Z,11.45
2019-03-06T12:27:28.447Z,11.41
2019-03-06T12:28:28.449Z,11.43
2019-03-06T12:29:28.431Z,11.45
2019-03-06T12:30:28.426Z,11.41
2019-03-06T12:31:28.398Z,11.55
2019-03-06T12:32:28.473Z,11.63
2019-03-06T12:33:28.375Z,11.52
2019-03-06T12:34:28.411Z,11.65
2019-03-06T12:35:28.385Z,11.65
2019-03-06T12:36:28.348Z,11.69
2019-03-06T12:37:28.356Z,11.68
2019-03-06T12:38:28.397Z,11.65
2019-03-06T12:39:28.310Z,11.52
2019-03-06T12:40:28.304Z,11.60
2019-03-06T12:41:28.290Z,11.66
2019-03-06T12:42:28.277Z,11.55
2019-03-06T12:43:28.275Z,11.59
2019-03-06T12:44:28.261Z,11.55
2019-03-06T12:45:28.245Z,11.57
2019-03-06T12:46:28.239Z,11.55
2019-03-06T12:47:28.268Z,11.52
2019-03-06T12:48:28.215Z,11.65
2019-03-06T12:49:28.202Z,11.57
2019-03-06T12:50:28.188Z,11.68
2019-03-06T12:51:28.298Z,11.63
2019-03-06T12:52:28.173Z,11.54
2019-03-06T12:53:28.154Z,11.52
2019-03-06T12:54:28.150Z,11.52
2019-03-06T12:55:28.164Z,11.52
2019-03-06T12:56:28.123Z,11.59
2019-03-06T12:57:28.129Z,11.54
2019-03-06T12:58:28.099Z,11.54
2019-03-06T12:59:28.144Z,11.59
2019-03-06T13:00:28.079Z,11.52
2019-03-06T13:01:28.069Z,11.65
2019-03-06T13:02:28.065Z,11.72
2019-03-06T13:03:28.047Z,11.70
2019-03-06T13:04:28.033Z,11.77
2019-03-06T13:05:28.021Z,11.73
2019-03-06T13:06:28.009Z,11.69
2019-03-06T13:07:28.021Z,11.68
2019-03-06T13:08:28.000Z,11.70
2019-03-06T13:09:27.983Z,11.70
2019-03-06T13:10:27.971Z,11.62
2019-03-06T13:11:27.965Z,11.60
2019-03-06T13:12:29.237Z,11.63
2019-03-06T13:13:35.267Z,11.70
2019-03-06T13:14:30.530Z,11.68